sensor_id;sensor_type;location;lat;lon;timestamp;pressure;altitude;pressure_sealevel;temperature;humidity
60646;BME280;46462;32.608;-117.032;2023-02-03T00:01:55;100344.42;;;19.23;33.38
60646;BME280;46462;32.608;-117.032;2023-02-03T00:04:26;100344.44;;;19.32;33.21
60646;BME280;46462;32.608;-117.032;2023-02-03T00:06:56;100339.09;;;19.08;33.53
60646;BME280;46462;32.608;-117.032;2023-02-03T00:09:27;100335.83;;;19.11;33.35
60646;BME280;46462;32.608;-117.032;2023-02-03T00:11:58;100333.63;;;19.03;33.38
60646;BME280;46462;32.608;-117.032;2023-02-03T00:14:29;100331.63;;;19.10;33.34
60646;BME280;46462;32.608;-117.032;2023-02-03T00:16:59;100332.28;;;18.78;33.40
60646;BME280;46462;32.608;-117.032;2023-02-03T00:19:30;100335.52;;;18.69;33.53
60646;BME280;46462;32.608;-117.032;2023-02-03T00:22:01;100337.68;;;18.68;33.48
60646;BME280;46462;32.608;-117.032;2023-02-03T00:24:32;100342.27;;;18.79;33.32
60646;BME280;46462;32.608;-117.032;2023-02-03T00:27:03;100345.91;;;18.56;33.66
60646;BME280;46462;32.608;-117.032;2023-02-03T00:29:33;100347.28;;;18.46;33.96
60646;BME280;46462;32.608;-117.032;2023-02-03T00:32:04;100335.35;;;19.89;31.91
60646;BME280;46462;32.608;-117.032;2023-02-03T00:34:35;100340.10;;;21.35;29.38
60646;BME280;46462;32.608;-117.032;2023-02-03T00:37:05;100337.23;;;22.16;27.96
60646;BME280;46462;32.608;-117.032;2023-02-03T00:39:36;100336.37;;;22.68;27.63
60646;BME280;46462;32.608;-117.032;2023-02-03T00:42:07;100336.06;;;23.02;26.97
60646;BME280;46462;32.608;-117.032;2023-02-03T00:44:38;100334.09;;;23.35;26.56
60646;BME280;46462;32.608;-117.032;2023-02-03T00:47:09;100330.23;;;23.50;26.55
60646;BME280;46462;32.608;-117.032;2023-02-03T00:49:39;100327.76;;;23.59;26.49
60646;BME280;46462;32.608;-117.032;2023-02-03T00:52:10;100327.41;;;23.68;26.42
60646;BME280;46462;32.608;-117.032;2023-02-03T00:54:41;100331.13;;;23.69;26.64
60646;BME280;46462;32.608;-117.032;2023-02-03T00:57:12;100330.18;;;23.68;26.52
60646;BME280;46462;32.608;-117.032;2023-02-03T00:59:42;100331.07;;;23.73;26.56
60646;BME280;46462;32.608;-117.032;2023-02-03T01:02:13;100331.45;;;23.72;26.65
60646;BME280;46462;32.608;-117.032;2023-02-03T01:04:44;100335.03;;;23.76;26.55
60646;BME280;46462;32.608;-117.032;2023-02-03T01:07:15;100340.74;;;23.83;26.40
60646;BME280;46462;32.608;-117.032;2023-02-03T01:09:45;100340.77;;;23.83;26.30
60646;BME280;46462;32.608;-117.032;2023-02-03T01:12:16;100338.32;;;23.83;26.59
60646;BME280;46462;32.608;-117.032;2023-02-03T01:14:47;100340.46;;;23.90;26.45
60646;BME280;46462;32.608;-117.032;2023-02-03T01:17:18;100345.49;;;23.92;26.57
60646;BME280;46462;32.608;-117.032;2023-02-03T01:19:50;100343.49;;;24.02;26.42
60646;BME280;46462;32.608;-117.032;2023-02-03T01:22:19;100348.60;;;23.98;26.59
60646;BME280;46462;32.608;-117.032;2023-02-03T01:24:50;100355.99;;;23.96;26.59
60646;BME280;46462;32.608;-117.032;2023-02-03T01:27:21;100355.53;;;23.99;26.62
60646;BME280;46462;32.608;-117.032;2023-02-03T01:29:51;100356.70;;;24.03;26.71
60646;BME280;46462;32.608;-117.032;2023-02-03T01:32:22;100358.90;;;24.02;26.75
60646;BME280;46462;32.608;-117.032;2023-02-03T01:34:53;100366.19;;;23.97;26.94
60646;BME280;46462;32.608;-117.032;2023-02-03T01:37:24;100369.49;;;23.99;26.96
60646;BME280;46462;32.608;-117.032;2023-02-03T01:39:54;100370.25;;;23.99;27.25
60646;BME280;46462;32.608;-117.032;2023-02-03T01:42:25;100373.26;;;23.93;27.03
60646;BME280;46462;32.608;-117.032;2023-02-03T01:44:56;100376.36;;;23.96;27.20
60646;BME280;46462;32.608;-117.032;2023-02-03T01:47:31;100380.59;;;23.95;27.08
60646;BME280;46462;32.608;-117.032;2023-02-03T01:50:05;100381.93;;;23.96;27.42
60646;BME280;46462;32.608;-117.032;2023-02-03T01:52:28;100384.21;;;23.94;27.41
60646;BME280;46462;32.608;-117.032;2023-02-03T01:55:01;100386.99;;;23.91;27.50
60646;BME280;46462;32.608;-117.032;2023-02-03T01:57:34;100387.92;;;23.95;27.56
60646;BME280;46462;32.608;-117.032;2023-02-03T02:00:00;100386.00;;;23.94;27.69
60646;BME280;46462;32.608;-117.032;2023-02-03T02:02:31;100386.65;;;24.00;27.74
60646;BME280;46462;32.608;-117.032;2023-02-03T02:05:06;100387.85;;;24.00;27.63
60646;BME280;46462;32.608;-117.032;2023-02-03T02:07:34;100389.73;;;23.95;27.82
60646;BME280;46462;32.608;-117.032;2023-02-03T02:10:07;100389.37;;;23.92;27.85
60646;BME280;46462;32.608;-117.032;2023-02-03T02:12:37;100390.14;;;23.96;27.81
60646;BME280;46462;32.608;-117.032;2023-02-03T02:15:08;100388.92;;;23.92;27.91
60646;BME280;46462;32.608;-117.032;2023-02-03T02:17:50;100381.36;;;23.94;27.91
60646;BME280;46462;32.608;-117.032;2023-02-03T02:20:20;100375.16;;;23.90;27.97
60646;BME280;46462;32.608;-117.032;2023-02-03T02:22:47;100376.51;;;23.90;28.04
60646;BME280;46462;32.608;-117.032;2023-02-03T02:30:18;100390.62;;;23.82;27.86
60646;BME280;46462;32.608;-117.032;2023-02-03T02:32:50;100397.79;;;23.90;27.70
60646;BME280;46462;32.608;-117.032;2023-02-03T02:35:18;100397.58;;;23.79;27.98
60646;BME280;46462;32.608;-117.032;2023-02-03T02:37:48;100403.99;;;23.87;27.93
60646;BME280;46462;32.608;-117.032;2023-02-03T02:40:22;100408.44;;;23.82;27.95
60646;BME280;46462;32.608;-117.032;2023-02-03T02:42:53;100408.58;;;23.81;27.98
60646;BME280;46462;32.608;-117.032;2023-02-03T02:45:16;100406.74;;;23.76;28.11
60646;BME280;46462;32.608;-117.032;2023-02-03T02:47:45;100404.76;;;23.77;28.15
60646;BME280;46462;32.608;-117.032;2023-02-03T02:50:20;100401.95;;;23.79;28.22
60646;BME280;46462;32.608;-117.032;2023-02-03T02:52:48;100398.15;;;23.77;28.21
60646;BME280;46462;32.608;-117.032;2023-02-03T02:55:21;100397.24;;;23.82;28.24
60646;BME280;46462;32.608;-117.032;2023-02-03T02:57:49;100394.85;;;23.78;28.32
60646;BME280;46462;32.608;-117.032;2023-02-03T03:00:19;100393.15;;;23.74;28.43
60646;BME280;46462;32.608;-117.032;2023-02-03T03:02:50;100395.99;;;23.71;28.43
60646;BME280;46462;32.608;-117.032;2023-02-03T03:05:21;100397.45;;;23.70;28.52
60646;BME280;46462;32.608;-117.032;2023-02-03T03:07:55;100399.69;;;23.61;28.69
60646;BME280;46462;32.608;-117.032;2023-02-03T03:10:25;100404.57;;;23.59;28.77
60646;BME280;46462;32.608;-117.032;2023-02-03T03:12:57;100407.03;;;23.60;28.74
60646;BME280;46462;32.608;-117.032;2023-02-03T03:15:27;100407.33;;;23.57;28.77
60646;BME280;46462;32.608;-117.032;2023-02-03T03:17:58;100407.97;;;23.50;28.95
60646;BME280;46462;32.608;-117.032;2023-02-03T03:20:26;100408.20;;;23.50;29.11
60646;BME280;46462;32.608;-117.032;2023-02-03T03:22:58;100410.40;;;23.47;29.18
60646;BME280;46462;32.608;-117.032;2023-02-03T03:25:31;100409.08;;;23.45;29.24
60646;BME280;46462;32.608;-117.032;2023-02-03T03:28:01;100405.94;;;23.46;29.32
60646;BME280;46462;32.608;-117.032;2023-02-03T03:30:33;100401.22;;;23.52;29.28
60646;BME280;46462;32.608;-117.032;2023-02-03T03:32:59;100403.56;;;23.46;29.34
60646;BME280;46462;32.608;-117.032;2023-02-03T03:35:34;100402.69;;;23.54;29.28
60646;BME280;46462;32.608;-117.032;2023-02-03T03:38:04;100404.96;;;23.39;29.57
60646;BME280;46462;32.608;-117.032;2023-02-03T03:40:33;100405.45;;;23.31;29.76
60646;BME280;46462;32.608;-117.032;2023-02-03T03:43:05;100400.57;;;23.32;29.83
60646;BME280;46462;32.608;-117.032;2023-02-03T03:45:36;100401.61;;;23.28;29.95
60646;BME280;46462;32.608;-117.032;2023-02-03T03:48:06;100401.49;;;23.28;29.92
60646;BME280;46462;32.608;-117.032;2023-02-03T03:50:38;100400.03;;;23.24;29.96
60646;BME280;46462;32.608;-117.032;2023-02-03T03:53:06;100395.33;;;23.24;30.10
60646;BME280;46462;32.608;-117.032;2023-02-03T03:55:36;100392.87;;;23.23;30.18
60646;BME280;46462;32.608;-117.032;2023-02-03T03:58:09;100388.78;;;23.21;30.23
60646;BME280;46462;32.608;-117.032;2023-02-03T04:00:38;100387.52;;;23.24;30.22
60646;BME280;46462;32.608;-117.032;2023-02-03T04:03:12;100379.00;;;23.21;30.26
60646;BME280;46462;32.608;-117.032;2023-02-03T04:05:39;100378.17;;;23.20;30.24
60646;BME280;46462;32.608;-117.032;2023-02-03T04:08:09;100377.00;;;23.18;30.29
60646;BME280;46462;32.608;-117.032;2023-02-03T04:10:41;100378.28;;;23.12;30.55
60646;BME280;46462;32.608;-117.032;2023-02-03T04:13:11;100381.78;;;23.10;30.55
60646;BME280;46462;32.608;-117.032;2023-02-03T04:15:42;100380.45;;;23.12;30.48
60646;BME280;46462;32.608;-117.032;2023-02-03T04:18:13;100388.32;;;23.29;30.27
60646;BME280;46462;32.608;-117.032;2023-02-03T04:20:43;100384.26;;;23.18;30.43
60646;BME280;46462;32.608;-117.032;2023-02-03T04:23:14;100384.37;;;23.16;30.43
60646;BME280;46462;32.608;-117.032;2023-02-03T04:25:44;100383.82;;;23.08;30.58
60646;BME280;46462;32.608;-117.032;2023-02-03T04:28:15;100386.37;;;23.15;30.52
60646;BME280;46462;32.608;-117.032;2023-02-03T04:30:46;100388.15;;;23.12;30.58
60646;BME280;46462;32.608;-117.032;2023-02-03T04:33:17;100383.95;;;23.02;30.75
60646;BME280;46462;32.608;-117.032;2023-02-03T04:35:48;100381.25;;;23.00;30.83
60646;BME280;46462;32.608;-117.032;2023-02-03T04:38:19;100377.65;;;23.05;30.72
60646;BME280;46462;32.608;-117.032;2023-02-03T04:40:49;100376.30;;;23.06;30.64
60646;BME280;46462;32.608;-117.032;2023-02-03T04:43:20;100376.10;;;23.07;30.75
60646;BME280;46462;32.608;-117.032;2023-02-03T04:45:51;100376.84;;;23.01;30.81
60646;BME280;46462;32.608;-117.032;2023-02-03T04:48:22;100373.74;;;22.98;30.88
60646;BME280;46462;32.608;-117.032;2023-02-03T04:50:52;100369.94;;;22.98;30.90
60646;BME280;46462;32.608;-117.032;2023-02-03T04:53:23;100366.17;;;22.95;30.99
60646;BME280;46462;32.608;-117.032;2023-02-03T04:55:54;100360.75;;;22.89;31.13
60646;BME280;46462;32.608;-117.032;2023-02-03T04:58:25;100355.22;;;22.92;31.10
60646;BME280;46462;32.608;-117.032;2023-02-03T05:00:56;100350.84;;;22.91;31.17
60646;BME280;46462;32.608;-117.032;2023-02-03T05:03:26;100346.07;;;22.91;31.24
60646;BME280;46462;32.608;-117.032;2023-02-03T05:05:57;100339.74;;;22.92;31.12
60646;BME280;46462;32.608;-117.032;2023-02-03T05:08:28;100334.41;;;22.82;31.44
60646;BME280;46462;32.608;-117.032;2023-02-03T05:10:59;100330.39;;;22.76;31.64
60646;BME280;46462;32.608;-117.032;2023-02-03T05:13:30;100331.85;;;22.76;31.59
60646;BME280;46462;32.608;-117.032;2023-02-03T05:16:00;100333.62;;;22.74;31.55
60646;BME280;46462;32.608;-117.032;2023-02-03T05:18:31;100341.10;;;22.85;31.37
60646;BME280;46462;32.608;-117.032;2023-02-03T05:21:02;100351.16;;;22.77;31.49
60646;BME280;46462;32.608;-117.032;2023-02-03T05:23:32;100354.25;;;22.84;31.35
60646;BME280;46462;32.608;-117.032;2023-02-03T05:26:04;100363.73;;;22.83;31.39
60646;BME280;46462;32.608;-117.032;2023-02-03T05:28:34;100362.39;;;22.83;31.38
60646;BME280;46462;32.608;-117.032;2023-02-03T05:31:05;100364.88;;;22.97;31.33
60646;BME280;46462;32.608;-117.032;2023-02-03T05:33:36;100353.98;;;22.92;31.20
60646;BME280;46462;32.608;-117.032;2023-02-03T05:36:07;100348.78;;;22.70;31.48
60646;BME280;46462;32.608;-117.032;2023-02-03T05:38:37;100344.51;;;22.68;31.58
60646;BME280;46462;32.608;-117.032;2023-02-03T05:41:09;100339.10;;;22.68;31.58
60646;BME280;46462;32.608;-117.032;2023-02-03T05:43:39;100334.44;;;22.72;31.47
60646;BME280;46462;32.608;-117.032;2023-02-03T05:46:09;100328.32;;;22.66;31.72
60646;BME280;46462;32.608;-117.032;2023-02-03T05:48:40;100321.53;;;22.63;31.76
60646;BME280;46462;32.608;-117.032;2023-02-03T05:51:11;100319.13;;;22.74;31.28
60646;BME280;46462;32.608;-117.032;2023-02-03T05:53:42;100318.51;;;22.59;31.69
60646;BME280;46462;32.608;-117.032;2023-02-03T05:56:13;100326.63;;;22.67;31.35
60646;BME280;46462;32.608;-117.032;2023-02-03T05:58:43;100323.89;;;22.54;31.67
60646;BME280;46462;32.608;-117.032;2023-02-03T06:01:14;100319.46;;;22.63;31.55
60646;BME280;46462;32.608;-117.032;2023-02-03T06:03:45;100304.83;;;22.68;31.73
60646;BME280;46462;32.608;-117.032;2023-02-03T06:06:16;100293.12;;;22.44;31.85
60646;BME280;46462;32.608;-117.032;2023-02-03T06:08:46;100293.95;;;22.48;31.71
60646;BME280;46462;32.608;-117.032;2023-02-03T06:11:17;100293.64;;;22.35;32.03
60646;BME280;46462;32.608;-117.032;2023-02-03T06:13:48;100292.63;;;22.40;31.94
60646;BME280;46462;32.608;-117.032;2023-02-03T06:16:19;100284.37;;;22.51;31.43
60646;BME280;46462;32.608;-117.032;2023-02-03T06:18:50;100280.63;;;22.39;31.82
60646;BME280;46462;32.608;-117.032;2023-02-03T06:21:20;100291.54;;;22.54;31.89
60646;BME280;46462;32.608;-117.032;2023-02-03T06:23:51;100302.18;;;22.55;31.67
60646;BME280;46462;32.608;-117.032;2023-02-03T06:26:22;100309.89;;;22.57;31.42
60646;BME280;46462;32.608;-117.032;2023-02-03T06:28:53;100316.66;;;22.36;32.01
60646;BME280;46462;32.608;-117.032;2023-02-03T06:31:23;100326.21;;;22.25;32.28
60646;BME280;46462;32.608;-117.032;2023-02-03T06:33:54;100329.39;;;22.21;32.23
60646;BME280;46462;32.608;-117.032;2023-02-03T06:36:25;100322.04;;;22.38;32.03
60646;BME280;46462;32.608;-117.032;2023-02-03T06:38:56;100321.31;;;22.33;32.30
60646;BME280;46462;32.608;-117.032;2023-02-03T06:41:26;100320.35;;;22.14;32.48
60646;BME280;46462;32.608;-117.032;2023-02-03T06:43:57;100320.33;;;22.03;32.44
60646;BME280;46462;32.608;-117.032;2023-02-03T06:46:28;100320.39;;;22.14;32.18
60646;BME280;46462;32.608;-117.032;2023-02-03T06:48:59;100320.53;;;22.13;32.23
60646;BME280;46462;32.608;-117.032;2023-02-03T06:51:30;100328.45;;;22.14;31.81
60646;BME280;46462;32.608;-117.032;2023-02-03T06:54:00;100336.65;;;22.01;32.39
60646;BME280;46462;32.608;-117.032;2023-02-03T06:56:31;100336.11;;;22.07;32.40
60646;BME280;46462;32.608;-117.032;2023-02-03T06:59:02;100338.16;;;21.99;32.67
60646;BME280;46462;32.608;-117.032;2023-02-03T07:01:32;100337.83;;;22.01;32.62
60646;BME280;46462;32.608;-117.032;2023-02-03T07:04:04;100330.28;;;21.96;32.72
60646;BME280;46462;32.608;-117.032;2023-02-03T07:06:34;100324.71;;;21.91;32.61
60646;BME280;46462;32.608;-117.032;2023-02-03T07:09:05;100324.99;;;21.92;32.60
60646;BME280;46462;32.608;-117.032;2023-02-03T07:11:36;100321.37;;;21.84;32.82
60646;BME280;46462;32.608;-117.032;2023-02-03T07:14:07;100317.26;;;22.14;32.33
60646;BME280;46462;32.608;-117.032;2023-02-03T07:16:37;100313.50;;;22.17;32.11
60646;BME280;46462;32.608;-117.032;2023-02-03T07:19:08;100309.93;;;22.09;32.20
60646;BME280;46462;32.608;-117.032;2023-02-03T07:21:39;100306.32;;;21.98;32.33
60646;BME280;46462;32.608;-117.032;2023-02-03T07:24:10;100299.31;;;21.88;32.65
60646;BME280;46462;32.608;-117.032;2023-02-03T07:26:40;100291.98;;;21.73;32.93
60646;BME280;46462;32.608;-117.032;2023-02-03T07:29:11;100286.75;;;21.75;32.91
60646;BME280;46462;32.608;-117.032;2023-02-03T07:31:42;100280.34;;;21.66;33.06
60646;BME280;46462;32.608;-117.032;2023-02-03T07:34:13;100274.07;;;21.98;32.45
60646;BME280;46462;32.608;-117.032;2023-02-03T07:36:44;100271.76;;;21.74;32.74
60646;BME280;46462;32.608;-117.032;2023-02-03T07:39:15;100267.51;;;21.59;33.02
60646;BME280;46462;32.608;-117.032;2023-02-03T07:41:45;100261.96;;;21.81;32.55
60646;BME280;46462;32.608;-117.032;2023-02-03T07:44:16;100258.99;;;21.53;33.08
60646;BME280;46462;32.608;-117.032;2023-02-03T07:46:47;100256.55;;;21.40;33.35
60646;BME280;46462;32.608;-117.032;2023-02-03T07:49:17;100255.42;;;21.55;33.08
60646;BME280;46462;32.608;-117.032;2023-02-03T07:51:48;100254.25;;;21.38;33.52
60646;BME280;46462;32.608;-117.032;2023-02-03T07:54:19;100249.11;;;21.62;33.10
60646;BME280;46462;32.608;-117.032;2023-02-03T07:56:50;100244.37;;;21.48;33.27
60646;BME280;46462;32.608;-117.032;2023-02-03T07:59:21;100242.73;;;21.56;33.14
60646;BME280;46462;32.608;-117.032;2023-02-03T08:01:51;100243.11;;;21.46;32.87
60646;BME280;46462;32.608;-117.032;2023-02-03T08:04:22;100241.65;;;21.54;33.05
60646;BME280;46462;32.608;-117.032;2023-02-03T08:06:53;100233.80;;;21.45;33.23
60646;BME280;46462;32.608;-117.032;2023-02-03T08:09:24;100235.40;;;21.35;33.48
60646;BME280;46462;32.608;-117.032;2023-02-03T08:11:54;100246.70;;;21.16;33.63
60646;BME280;46462;32.608;-117.032;2023-02-03T08:14:25;100237.08;;;21.15;33.71
60646;BME280;46462;32.608;-117.032;2023-02-03T08:16:56;100236.82;;;21.12;33.82
60646;BME280;46462;32.608;-117.032;2023-02-03T08:19:27;100232.40;;;21.08;33.95
60646;BME280;46462;32.608;-117.032;2023-02-03T08:21:58;100228.70;;;21.34;33.39
60646;BME280;46462;32.608;-117.032;2023-02-03T08:24:29;100224.21;;;21.34;33.39
60646;BME280;46462;32.608;-117.032;2023-02-03T08:27:00;100222.28;;;21.23;33.46
60646;BME280;46462;32.608;-117.032;2023-02-03T08:29:30;100217.74;;;21.20;33.58
60646;BME280;46462;32.608;-117.032;2023-02-03T08:32:01;100213.94;;;21.19;33.68
60646;BME280;46462;32.608;-117.032;2023-02-03T08:34:32;100213.18;;;21.29;33.23
60646;BME280;46462;32.608;-117.032;2023-02-03T08:37:03;100211.25;;;21.18;33.62
60646;BME280;46462;32.608;-117.032;2023-02-03T08:39:34;100214.14;;;21.09;33.70
60646;BME280;46462;32.608;-117.032;2023-02-03T08:42:05;100211.31;;;20.85;34.09
60646;BME280;46462;32.608;-117.032;2023-02-03T08:44:35;100211.25;;;20.85;34.11
60646;BME280;46462;32.608;-117.032;2023-02-03T08:47:07;100207.89;;;21.07;33.66
60646;BME280;46462;32.608;-117.032;2023-02-03T08:49:37;100205.29;;;21.02;33.80
60646;BME280;46462;32.608;-117.032;2023-02-03T08:52:10;100199.09;;;20.82;34.11
60646;BME280;46462;32.608;-117.032;2023-02-03T08:54:38;100192.29;;;20.79;34.11
60646;BME280;46462;32.608;-117.032;2023-02-03T08:57:09;100189.01;;;20.95;34.05
60646;BME280;46462;32.608;-117.032;2023-02-03T08:59:42;100183.91;;;21.03;33.78
60646;BME280;46462;32.608;-117.032;2023-02-03T09:02:15;100184.66;;;20.88;33.92
60646;BME280;46462;32.608;-117.032;2023-02-03T09:04:42;100180.26;;;20.82;34.22
60646;BME280;46462;32.608;-117.032;2023-02-03T09:07:12;100176.85;;;20.77;34.24
60646;BME280;46462;32.608;-117.032;2023-02-03T09:09:43;100175.96;;;20.98;33.76
60646;BME280;46462;32.608;-117.032;2023-02-03T09:12:14;100181.26;;;20.90;33.70
60646;BME280;46462;32.608;-117.032;2023-02-03T09:14:44;100186.06;;;20.78;34.17
60646;BME280;46462;32.608;-117.032;2023-02-03T09:17:15;100185.98;;;20.83;33.96
60646;BME280;46462;32.608;-117.032;2023-02-03T09:19:46;100186.60;;;20.90;33.85
60646;BME280;46462;32.608;-117.032;2023-02-03T09:22:17;100185.73;;;20.73;34.19
60646;BME280;46462;32.608;-117.032;2023-02-03T09:24:47;100185.22;;;20.76;34.10
60646;BME280;46462;32.608;-117.032;2023-02-03T09:27:18;100189.02;;;20.55;34.40
60646;BME280;46462;32.608;-117.032;2023-02-03T09:29:49;100191.41;;;20.90;33.79
60646;BME280;46462;32.608;-117.032;2023-02-03T09:32:20;100205.19;;;20.74;34.04
60646;BME280;46462;32.608;-117.032;2023-02-03T09:34:51;100211.72;;;20.72;34.27
60646;BME280;46462;32.608;-117.032;2023-02-03T09:37:21;100215.57;;;20.63;34.33
60646;BME280;46462;32.608;-117.032;2023-02-03T09:39:52;100210.14;;;20.50;34.35
60646;BME280;46462;32.608;-117.032;2023-02-03T09:42:33;100214.54;;;20.77;34.24
60646;BME280;46462;32.608;-117.032;2023-02-03T09:45:01;100220.25;;;20.50;34.69
60646;BME280;46462;32.608;-117.032;2023-02-03T09:47:28;100223.36;;;20.56;34.59
60646;BME280;46462;32.608;-117.032;2023-02-03T09:49:59;100216.18;;;20.42;34.69
60646;BME280;46462;32.608;-117.032;2023-02-03T09:52:29;100209.76;;;20.53;34.53
60646;BME280;46462;32.608;-117.032;2023-02-03T09:55:02;100207.25;;;20.46;34.64
60646;BME280;46462;32.608;-117.032;2023-02-03T09:57:30;100204.59;;;20.53;34.29
60646;BME280;46462;32.608;-117.032;2023-02-03T10:00:03;100203.74;;;20.48;34.52
60646;BME280;46462;32.608;-117.032;2023-02-03T10:02:42;100202.25;;;20.46;34.49
60646;BME280;46462;32.608;-117.032;2023-02-03T10:05:09;100196.29;;;20.48;34.66
60646;BME280;46462;32.608;-117.032;2023-02-03T10:07:37;100189.19;;;20.38;34.91
60646;BME280;46462;32.608;-117.032;2023-02-03T10:10:09;100180.88;;;20.30;34.67
60646;BME280;46462;32.608;-117.032;2023-02-03T10:15:19;100168.16;;;20.40;34.56
60646;BME280;46462;32.608;-117.032;2023-02-03T10:17:38;100161.69;;;20.46;34.28
60646;BME280;46462;32.608;-117.032;2023-02-03T10:20:14;100151.05;;;20.71;33.81
60646;BME280;46462;32.608;-117.032;2023-02-03T10:22:42;100150.08;;;20.41;34.36
60646;BME280;46462;32.608;-117.032;2023-02-03T10:25:15;100143.44;;;20.38;34.41
60646;BME280;46462;32.608;-117.032;2023-02-03T10:27:38;100138.41;;;20.45;33.92
60646;BME280;46462;32.608;-117.032;2023-02-03T10:30:18;100139.97;;;20.55;34.07
60646;BME280;46462;32.608;-117.032;2023-02-03T10:32:40;100148.15;;;20.47;34.10
60646;BME280;46462;32.608;-117.032;2023-02-03T10:35:12;100162.71;;;20.38;34.41
60646;BME280;46462;32.608;-117.032;2023-02-03T10:37:44;100176.78;;;20.50;34.03
60646;BME280;46462;32.608;-117.032;2023-02-03T10:40:13;100175.40;;;20.36;34.43
60646;BME280;46462;32.608;-117.032;2023-02-03T10:42:45;100180.43;;;20.39;34.26
60646;BME280;46462;32.608;-117.032;2023-02-03T10:45:14;100179.10;;;20.14;34.62
60646;BME280;46462;32.608;-117.032;2023-02-03T10:47:47;100175.69;;;20.04;34.91
60646;BME280;46462;32.608;-117.032;2023-02-03T10:50:17;100177.23;;;20.00;35.08
60646;BME280;46462;32.608;-117.032;2023-02-03T10:52:46;100186.97;;;20.17;34.62
60646;BME280;46462;32.608;-117.032;2023-02-03T10:57:48;100195.27;;;20.21;34.77
60646;BME280;46462;32.608;-117.032;2023-02-03T11:00:22;100186.60;;;20.28;34.67
60646;BME280;46462;32.608;-117.032;2023-02-03T11:02:54;100179.43;;;20.12;34.67
60646;BME280;46462;32.608;-117.032;2023-02-03T11:05:21;100169.19;;;20.26;34.58
60646;BME280;46462;32.608;-117.032;2023-02-03T11:07:51;100165.49;;;20.28;34.25
60646;BME280;46462;32.608;-117.032;2023-02-03T11:10:27;100163.23;;;20.07;34.64
60646;BME280;46462;32.608;-117.032;2023-02-03T11:15:23;100171.88;;;20.05;34.62
60646;BME280;46462;32.608;-117.032;2023-02-03T11:17:54;100174.17;;;19.98;34.46
60646;BME280;46462;32.608;-117.032;2023-02-03T11:20:25;100178.87;;;20.19;34.38
60646;BME280;46462;32.608;-117.032;2023-02-03T11:22:56;100180.94;;;20.14;34.19
60646;BME280;46462;32.608;-117.032;2023-02-03T11:25:31;100182.41;;;20.00;34.77
60646;BME280;46462;32.608;-117.032;2023-02-03T11:28:03;100183.05;;;19.92;34.59
60646;BME280;46462;32.608;-117.032;2023-02-03T11:30:29;100182.78;;;19.97;34.96
60646;BME280;46462;32.608;-117.032;2023-02-03T11:33:01;100179.77;;;20.48;33.53
60646;BME280;46462;32.608;-117.032;2023-02-03T11:35:30;100178.54;;;20.25;34.19
60646;BME280;46462;32.608;-117.032;2023-02-03T11:38:01;100170.00;;;20.07;34.33
60646;BME280;46462;32.608;-117.032;2023-02-03T11:40:33;100163.47;;;20.15;34.12
60646;BME280;46462;32.608;-117.032;2023-02-03T11:43:09;100160.04;;;20.09;34.57
60646;BME280;46462;32.608;-117.032;2023-02-03T11:45:38;100155.05;;;20.07;34.63
60646;BME280;46462;32.608;-117.032;2023-02-03T11:48:14;100154.62;;;19.97;34.36
60646;BME280;46462;32.608;-117.032;2023-02-03T11:50:39;100157.88;;;20.15;34.21
60646;BME280;46462;32.608;-117.032;2023-02-03T11:53:16;100165.10;;;19.93;34.43
60646;BME280;46462;32.608;-117.032;2023-02-03T11:55:45;100171.85;;;19.96;34.39
60646;BME280;46462;32.608;-117.032;2023-02-03T11:58:19;100175.82;;;19.84;34.59
60646;BME280;46462;32.608;-117.032;2023-02-03T12:00:44;100183.19;;;20.02;34.58
60646;BME280;46462;32.608;-117.032;2023-02-03T12:03:24;100178.89;;;19.99;34.65
60646;BME280;46462;32.608;-117.032;2023-02-03T12:05:50;100176.35;;;19.88;35.02
60646;BME280;46462;32.608;-117.032;2023-02-03T12:08:21;100176.21;;;19.84;34.95
60646;BME280;46462;32.608;-117.032;2023-02-03T12:10:51;100178.56;;;19.78;34.83
60646;BME280;46462;32.608;-117.032;2023-02-03T12:13:23;100174.02;;;19.66;35.12
60646;BME280;46462;32.608;-117.032;2023-02-03T12:15:55;100176.99;;;19.75;34.84
60646;BME280;46462;32.608;-117.032;2023-02-03T12:18:23;100184.19;;;19.96;34.75
60646;BME280;46462;32.608;-117.032;2023-02-03T12:20:53;100179.34;;;19.89;34.49
60646;BME280;46462;32.608;-117.032;2023-02-03T12:23:24;100168.95;;;20.05;34.40
60646;BME280;46462;32.608;-117.032;2023-02-03T12:26:00;100156.46;;;20.00;34.55
60646;BME280;46462;32.608;-117.032;2023-02-03T12:28:28;100152.43;;;19.90;34.36
60646;BME280;46462;32.608;-117.032;2023-02-03T12:30:53;100143.68;;;19.88;34.46
60646;BME280;46462;32.608;-117.032;2023-02-03T12:33:22;100147.27;;;19.82;34.91
60646;BME280;46462;32.608;-117.032;2023-02-03T12:35:53;100153.51;;;19.72;34.95
60646;BME280;46462;32.608;-117.032;2023-02-03T12:38:28;100158.30;;;19.73;35.06
60646;BME280;46462;32.608;-117.032;2023-02-03T12:40:53;100156.20;;;19.63;35.01
60646;BME280;46462;32.608;-117.032;2023-02-03T12:43:27;100152.88;;;19.50;35.05
60646;BME280;46462;32.608;-117.032;2023-02-03T12:45:56;100159.71;;;19.71;34.78
60646;BME280;46462;32.608;-117.032;2023-02-03T12:48:28;100161.52;;;19.58;35.04
60646;BME280;46462;32.608;-117.032;2023-02-03T12:50:59;100162.50;;;19.45;35.06